sensor_id;sensor_type;location;lat;lon;timestamp;P1;durP1;ratioP1;P2;durP2;ratioP2
21091;SDS011;10704;42.678;23.288;2023-04-06T00:02:14;14.88;;;8.57;;
21091;SDS011;10704;42.678;23.288;2023-04-06T00:04:40;12.82;;;8.50;;
21091;SDS011;10704;42.678;23.288;2023-04-06T00:07:06;12.75;;;8.05;;
21091;SDS011;10704;42.678;23.288;2023-04-06T00:09:32;14.57;;;8.88;;
21091;SDS011;10704;42.678;23.288;2023-04-06T00:11:58;15.63;;;8.85;;
21091;SDS011;10704;42.678;23.288;2023-04-06T00:14:25;14.85;;;9.38;;
21091;SDS011;10704;42.678;23.288;2023-04-06T00:16:51;14.55;;;8.68;;
21091;SDS011;10704;42.678;23.288;2023-04-06T00:19:17;15.15;;;8.63;;
21091;SDS011;10704;42.678;23.288;2023-04-06T00:21:43;13.57;;;8.73;;
21091;SDS011;10704;42.678;23.288;2023-04-06T00:24:09;15.48;;;9.68;;
21091;SDS011;10704;42.678;23.288;2023-04-06T00:26:35;15.68;;;9.05;;
21091;SDS011;10704;42.678;23.288;2023-04-06T00:29:01;14.27;;;8.80;;
21091;SDS011;10704;42.678;23.288;2023-04-06T00:31:28;15.35;;;9.27;;
21091;SDS011;10704;42.678;23.288;2023-04-06T00:33:54;16.13;;;9.27;;
21091;SDS011;10704;42.678;23.288;2023-04-06T00:36:20;14.55;;;9.00;;
21091;SDS011;10704;42.678;23.288;2023-04-06T00:38:46;16.42;;;9.10;;
21091;SDS011;10704;42.678;23.288;2023-04-06T00:41:12;13.80;;;8.95;;
21091;SDS011;10704;42.678;23.288;2023-04-06T00:43:39;14.27;;;8.45;;
21091;SDS011;10704;42.678;23.288;2023-04-06T00:46:05;12.23;;;7.80;;
21091;SDS011;10704;42.678;23.288;2023-04-06T00:48:31;12.13;;;7.82;;
21091;SDS011;10704;42.678;23.288;2023-04-06T00:50:58;14.48;;;8.13;;
21091;SDS011;10704;42.678;23.288;2023-04-06T00:53:24;13.90;;;8.80;;
21091;SDS011;10704;42.678;23.288;2023-04-06T00:55:51;11.75;;;7.80;;
21091;SDS011;10704;42.678;23.288;2023-04-06T00:58:18;13.30;;;8.18;;
21091;SDS011;10704;42.678;23.288;2023-04-06T01:00:50;16.70;;;9.00;;
21091;SDS011;10704;42.678;23.288;2023-04-06T01:03:19;13.40;;;8.40;;
21091;SDS011;10704;42.678;23.288;2023-04-06T01:05:45;13.20;;;8.80;;
21091;SDS011;10704;42.678;23.288;2023-04-06T01:08:19;14.13;;;9.30;;
21091;SDS011;10704;42.678;23.288;2023-04-06T01:10:47;16.75;;;8.73;;
21091;SDS011;10704;42.678;23.288;2023-04-06T01:13:24;13.35;;;7.85;;
21091;SDS011;10704;42.678;23.288;2023-04-06T01:15:57;12.35;;;7.72;;
21091;SDS011;10704;42.678;23.288;2023-04-06T01:18:30;14.65;;;8.55;;
21091;SDS011;10704;42.678;23.288;2023-04-06T01:21:16;15.40;;;8.80;;
21091;SDS011;10704;42.678;23.288;2023-04-06T01:24:11;18.27;;;9.70;;
21091;SDS011;10704;42.678;23.288;2023-04-06T01:26:57;14.02;;;9.50;;
21091;SDS011;10704;42.678;23.288;2023-04-06T01:29:27;13.00;;;7.82;;
21091;SDS011;10704;42.678;23.288;2023-04-06T01:31:53;13.32;;;7.80;;
21091;SDS011;10704;42.678;23.288;2023-04-06T01:34:19;13.77;;;8.43;;
21091;SDS011;10704;42.678;23.288;2023-04-06T01:36:45;13.65;;;7.95;;
21091;SDS011;10704;42.678;23.288;2023-04-06T01:39:24;14.43;;;8.05;;
21091;SDS011;10704;42.678;23.288;2023-04-06T01:41:51;14.40;;;9.05;;
21091;SDS011;10704;42.678;23.288;2023-04-06T01:44:19;14.57;;;8.88;;
21091;SDS011;10704;42.678;23.288;2023-04-06T01:46:51;14.00;;;8.48;;
21091;SDS011;10704;42.678;23.288;2023-04-06T01:49:18;13.65;;;8.05;;
21091;SDS011;10704;42.678;23.288;2023-04-06T01:51:49;14.32;;;8.55;;
21091;SDS011;10704;42.678;23.288;2023-04-06T01:54:15;12.73;;;8.10;;
21091;SDS011;10704;42.678;23.288;2023-04-06T01:56:57;13.65;;;7.68;;
21091;SDS011;10704;42.678;23.288;2023-04-06T01:59:46;14.85;;;8.20;;
21091;SDS011;10704;42.678;23.288;2023-04-06T02:02:20;12.65;;;7.57;;
21091;SDS011;10704;42.678;23.288;2023-04-06T02:04:55;11.32;;;7.47;;
21091;SDS011;10704;42.678;23.288;2023-04-06T02:07:22;14.35;;;8.13;;
21091;SDS011;10704;42.678;23.288;2023-04-06T02:09:48;10.68;;;7.53;;
21091;SDS011;10704;42.678;23.288;2023-04-06T02:12:22;12.60;;;7.55;;
21091;SDS011;10704;42.678;23.288;2023-04-06T02:14:49;15.13;;;8.18;;
21091;SDS011;10704;42.678;23.288;2023-04-06T02:17:15;12.05;;;7.63;;
21091;SDS011;10704;42.678;23.288;2023-04-06T02:19:41;13.00;;;7.78;;
21091;SDS011;10704;42.678;23.288;2023-04-06T02:22:07;10.73;;;7.03;;
21091;SDS011;10704;42.678;23.288;2023-04-06T02:24:33;11.00;;;7.03;;
21091;SDS011;10704;42.678;23.288;2023-04-06T02:26:59;11.00;;;6.90;;
21091;SDS011;10704;42.678;23.288;2023-04-06T02:29:25;12.65;;;7.43;;
21091;SDS011;10704;42.678;23.288;2023-04-06T02:31:51;13.02;;;7.97;;
21091;SDS011;10704;42.678;23.288;2023-04-06T02:34:18;13.10;;;7.88;;
21091;SDS011;10704;42.678;23.288;2023-04-06T02:36:48;13.75;;;7.38;;
21091;SDS011;10704;42.678;23.288;2023-04-06T02:39:14;11.98;;;7.97;;
21091;SDS011;10704;42.678;23.288;2023-04-06T02:41:41;14.15;;;7.72;;
21091;SDS011;10704;42.678;23.288;2023-04-06T02:44:07;13.00;;;8.20;;
21091;SDS011;10704;42.678;23.288;2023-04-06T02:46:41;11.88;;;7.05;;
21091;SDS011;10704;42.678;23.288;2023-04-06T02:49:07;14.07;;;7.32;;
21091;SDS011;10704;42.678;23.288;2023-04-06T02:51:34;12.85;;;7.55;;
21091;SDS011;10704;42.678;23.288;2023-04-06T02:54:26;13.95;;;7.80;;
21091;SDS011;10704;42.678;23.288;2023-04-06T02:56:52;10.18;;;6.28;;
21091;SDS011;10704;42.678;23.288;2023-04-06T02:59:19;11.95;;;7.15;;
21091;SDS011;10704;42.678;23.288;2023-04-06T03:01:56;12.13;;;7.70;;
21091;SDS011;10704;42.678;23.288;2023-04-06T03:04:22;12.30;;;7.70;;
21091;SDS011;10704;42.678;23.288;2023-04-06T03:06:51;14.13;;;8.25;;
21091;SDS011;10704;42.678;23.288;2023-04-06T03:09:30;15.07;;;8.20;;
21091;SDS011;10704;42.678;23.288;2023-04-06T03:11:56;13.23;;;7.15;;
21091;SDS011;10704;42.678;23.288;2023-04-06T03:14:23;13.88;;;7.78;;
21091;SDS011;10704;42.678;23.288;2023-04-06T03:16:49;14.07;;;7.57;;
21091;SDS011;10704;42.678;23.288;2023-04-06T03:19:19;13.55;;;7.30;;
21091;SDS011;10704;42.678;23.288;2023-04-06T03:21:45;13.38;;;7.05;;
21091;SDS011;10704;42.678;23.288;2023-04-06T03:24:13;10.27;;;6.30;;
21091;SDS011;10704;42.678;23.288;2023-04-06T03:26:39;13.10;;;6.82;;
21091;SDS011;10704;42.678;23.288;2023-04-06T03:29:06;12.40;;;7.30;;
21091;SDS011;10704;42.678;23.288;2023-04-06T03:31:32;10.40;;;6.43;;
21091;SDS011;10704;42.678;23.288;2023-04-06T03:34:05;13.77;;;7.32;;
21091;SDS011;10704;42.678;23.288;2023-04-06T03:36:34;12.07;;;7.70;;
21091;SDS011;10704;42.678;23.288;2023-04-06T03:39:02;11.57;;;7.00;;
21091;SDS011;10704;42.678;23.288;2023-04-06T03:41:31;12.68;;;6.38;;
21091;SDS011;10704;42.678;23.288;2023-04-06T03:44:03;10.20;;;6.47;;
21091;SDS011;10704;42.678;23.288;2023-04-06T03:46:29;12.98;;;6.80;;
21091;SDS011;10704;42.678;23.288;2023-04-06T03:48:57;10.88;;;6.85;;
21091;SDS011;10704;42.678;23.288;2023-04-06T03:51:23;12.85;;;6.57;;
21091;SDS011;10704;42.678;23.288;2023-04-06T03:53:50;11.18;;;7.18;;
21091;SDS011;10704;42.678;23.288;2023-04-06T03:56:16;11.88;;;6.97;;
21091;SDS011;10704;42.678;23.288;2023-04-06T03:58:42;12.82;;;7.50;;
21091;SDS011;10704;42.678;23.288;2023-04-06T04:01:10;8.70;;;5.93;;
21091;SDS011;10704;42.678;23.288;2023-04-06T04:03:36;11.70;;;7.18;;
21091;SDS011;10704;42.678;23.288;2023-04-06T04:06:02;14.63;;;8.40;;
21091;SDS011;10704;42.678;23.288;2023-04-06T04:08:28;14.80;;;8.18;;
21091;SDS011;10704;42.678;23.288;2023-04-06T04:10:55;11.85;;;7.32;;
21091;SDS011;10704;42.678;23.288;2023-04-06T04:13:21;11.20;;;6.30;;
21091;SDS011;10704;42.678;23.288;2023-04-06T04:15:49;8.50;;;6.03;;
21091;SDS011;10704;42.678;23.288;2023-04-06T04:18:15;10.25;;;6.25;;
21091;SDS011;10704;42.678;23.288;2023-04-06T04:20:42;11.55;;;7.15;;
21091;SDS011;10704;42.678;23.288;2023-04-06T04:23:09;15.18;;;7.15;;
21091;SDS011;10704;42.678;23.288;2023-04-06T04:25:36;11.98;;;7.45;;
21091;SDS011;10704;42.678;23.288;2023-04-06T04:28:02;12.43;;;6.88;;
21091;SDS011;10704;42.678;23.288;2023-04-06T04:30:28;11.38;;;7.18;;
21091;SDS011;10704;42.678;23.288;2023-04-06T04:32:54;12.40;;;7.20;;
21091;SDS011;10704;42.678;23.288;2023-04-06T04:35:22;12.35;;;7.85;;
21091;SDS011;10704;42.678;23.288;2023-04-06T04:37:49;10.50;;;6.40;;
21091;SDS011;10704;42.678;23.288;2023-04-06T04:40:15;13.93;;;7.28;;
21091;SDS011;10704;42.678;23.288;2023-04-06T04:43:07;12.77;;;7.15;;
21091;SDS011;10704;42.678;23.288;2023-04-06T04:45:33;10.82;;;6.57;;
21091;SDS011;10704;42.678;23.288;2023-04-06T04:48:10;13.40;;;7.57;;
21091;SDS011;10704;42.678;23.288;2023-04-06T04:50:48;14.13;;;8.02;;
21091;SDS011;10704;42.678;23.288;2023-04-06T04:53:16;11.90;;;6.95;;
21091;SDS011;10704;42.678;23.288;2023-04-06T04:55:43;14.77;;;7.32;;
21091;SDS011;10704;42.678;23.288;2023-04-06T04:58:11;22.30;;;8.23;;
21091;SDS011;10704;42.678;23.288;2023-04-06T05:00:47;11.32;;;7.07;;
21091;SDS011;10704;42.678;23.288;2023-04-06T05:03:17;15.02;;;7.75;;
21091;SDS011;10704;42.678;23.288;2023-04-06T05:05:54;13.15;;;8.27;;
21091;SDS011;10704;42.678;23.288;2023-04-06T05:08:23;11.30;;;6.82;;
21091;SDS011;10704;42.678;23.288;2023-04-06T05:10:49;16.05;;;8.50;;
21091;SDS011;10704;42.678;23.288;2023-04-06T05:13:17;13.10;;;7.80;;
21091;SDS011;10704;42.678;23.288;2023-04-06T05:15:45;18.70;;;9.75;;
21091;SDS011;10704;42.678;23.288;2023-04-06T05:18:31;14.80;;;8.13;;
21091;SDS011;10704;42.678;23.288;2023-04-06T05:20:58;16.13;;;9.30;;
21091;SDS011;10704;42.678;23.288;2023-04-06T05:23:36;19.75;;;9.60;;
21091;SDS011;10704;42.678;23.288;2023-04-06T05:26:02;18.23;;;9.35;;
21091;SDS011;10704;42.678;23.288;2023-04-06T05:28:29;15.73;;;9.57;;
21091;SDS011;10704;42.678;23.288;2023-04-06T05:30:55;16.42;;;8.90;;
21091;SDS011;10704;42.678;23.288;2023-04-06T05:33:22;15.82;;;9.35;;
21091;SDS011;10704;42.678;23.288;2023-04-06T05:36:09;18.00;;;10.10;;
21091;SDS011;10704;42.678;23.288;2023-04-06T05:38:40;17.52;;;9.57;;
21091;SDS011;10704;42.678;23.288;2023-04-06T05:41:18;16.50;;;10.02;;
21091;SDS011;10704;42.678;23.288;2023-04-06T05:46:31;17.33;;;10.30;;
21091;SDS011;10704;42.678;23.288;2023-04-06T05:48:58;17.77;;;10.50;;
21091;SDS011;10704;42.678;23.288;2023-04-06T05:51:28;21.45;;;10.52;;
21091;SDS011;10704;42.678;23.288;2023-04-06T05:53:54;15.45;;;9.38;;
21091;SDS011;10704;42.678;23.288;2023-04-06T05:56:21;17.95;;;10.00;;
21091;SDS011;10704;42.678;23.288;2023-04-06T05:58:47;19.60;;;10.32;;
21091;SDS011;10704;42.678;23.288;2023-04-06T06:01:17;17.25;;;10.65;;
21091;SDS011;10704;42.678;23.288;2023-04-06T06:03:45;18.15;;;10.07;;
21091;SDS011;10704;42.678;23.288;2023-04-06T06:06:11;21.20;;;10.52;;
21091;SDS011;10704;42.678;23.288;2023-04-06T06:08:49;20.33;;;12.15;;
21091;SDS011;10704;42.678;23.288;2023-04-06T06:11:16;16.38;;;10.32;;
21091;SDS011;10704;42.678;23.288;2023-04-06T06:13:42;18.25;;;10.57;;
21091;SDS011;10704;42.678;23.288;2023-04-06T06:16:08;17.50;;;10.27;;
21091;SDS011;10704;42.678;23.288;2023-04-06T06:18:40;20.35;;;11.75;;
21091;SDS011;10704;42.678;23.288;2023-04-06T06:21:06;23.48;;;11.57;;
21091;SDS011;10704;42.678;23.288;2023-04-06T06:23:33;19.35;;;12.05;;
21091;SDS011;10704;42.678;23.288;2023-04-06T06:25:59;21.70;;;11.88;;
21091;SDS011;10704;42.678;23.288;2023-04-06T06:28:27;22.02;;;12.48;;
21091;SDS011;10704;42.678;23.288;2023-04-06T06:30:53;15.52;;;10.10;;
21091;SDS011;10704;42.678;23.288;2023-04-06T06:33:21;17.63;;;10.50;;
21091;SDS011;10704;42.678;23.288;2023-04-06T06:35:50;19.98;;;11.50;;
21091;SDS011;10704;42.678;23.288;2023-04-06T06:38:17;19.55;;;10.10;;
21091;SDS011;10704;42.678;23.288;2023-04-06T06:40:44;19.20;;;9.32;;
21091;SDS011;10704;42.678;23.288;2023-04-06T06:43:11;17.70;;;10.02;;
21091;SDS011;10704;42.678;23.288;2023-04-06T06:45:59;18.95;;;11.73;;
21091;SDS011;10704;42.678;23.288;2023-04-06T06:48:25;19.33;;;10.65;;
21091;SDS011;10704;42.678;23.288;2023-04-06T06:50:52;19.42;;;10.70;;
21091;SDS011;10704;42.678;23.288;2023-04-06T06:53:19;16.80;;;9.98;;
21091;SDS011;10704;42.678;23.288;2023-04-06T06:55:45;18.08;;;11.00;;
21091;SDS011;10704;42.678;23.288;2023-04-06T06:58:11;19.55;;;11.18;;
21091;SDS011;10704;42.678;23.288;2023-04-06T07:00:37;23.73;;;11.50;;
21091;SDS011;10704;42.678;23.288;2023-04-06T07:03:03;18.52;;;10.55;;
21091;SDS011;10704;42.678;23.288;2023-04-06T07:05:29;19.45;;;11.48;;
21091;SDS011;10704;42.678;23.288;2023-04-06T07:07:57;25.08;;;11.52;;
21091;SDS011;10704;42.678;23.288;2023-04-06T07:10:24;18.20;;;10.18;;
21091;SDS011;10704;42.678;23.288;2023-04-06T07:12:51;15.48;;;8.52;;
21091;SDS011;10704;42.678;23.288;2023-04-06T07:15:17;15.10;;;9.52;;
21091;SDS011;10704;42.678;23.288;2023-04-06T07:17:43;17.38;;;9.10;;
21091;SDS011;10704;42.678;23.288;2023-04-06T07:20:12;15.55;;;8.80;;
21091;SDS011;10704;42.678;23.288;2023-04-06T07:22:39;16.38;;;9.88;;
21091;SDS011;10704;42.678;23.288;2023-04-06T07:25:05;23.67;;;12.95;;
21091;SDS011;10704;42.678;23.288;2023-04-06T07:27:32;26.92;;;14.68;;
21091;SDS011;10704;42.678;23.288;2023-04-06T07:29:58;18.30;;;10.23;;
21091;SDS011;10704;42.678;23.288;2023-04-06T07:32:25;20.42;;;10.23;;
21091;SDS011;10704;42.678;23.288;2023-04-06T07:34:52;15.32;;;9.70;;
21091;SDS011;10704;42.678;23.288;2023-04-06T07:37:18;17.70;;;9.43;;
21091;SDS011;10704;42.678;23.288;2023-04-06T07:39:44;16.73;;;9.27;;
21091;SDS011;10704;42.678;23.288;2023-04-06T07:42:10;18.02;;;9.35;;
21091;SDS011;10704;42.678;23.288;2023-04-06T07:44:36;15.45;;;10.25;;
21091;SDS011;10704;42.678;23.288;2023-04-06T07:47:02;17.90;;;10.80;;
21091;SDS011;10704;42.678;23.288;2023-04-06T07:49:28;17.77;;;10.60;;
21091;SDS011;10704;42.678;23.288;2023-04-06T07:51:55;16.70;;;10.35;;
21091;SDS011;10704;42.678;23.288;2023-04-06T07:54:22;18.75;;;11.70;;
21091;SDS011;10704;42.678;23.288;2023-04-06T07:56:47;16.73;;;10.80;;
21091;SDS011;10704;42.678;23.288;2023-04-06T07:59:13;15.77;;;10.25;;
21091;SDS011;10704;42.678;23.288;2023-04-06T08:01:39;19.10;;;11.00;;
21091;SDS011;10704;42.678;23.288;2023-04-06T08:04:05;20.13;;;11.15;;
21091;SDS011;10704;42.678;23.288;2023-04-06T08:06:31;14.25;;;9.20;;
21091;SDS011;10704;42.678;23.288;2023-04-06T08:08:57;17.75;;;9.88;;
21091;SDS011;10704;42.678;23.288;2023-04-06T08:11:23;16.05;;;9.23;;
21091;SDS011;10704;42.678;23.288;2023-04-06T08:13:50;18.48;;;10.52;;
21091;SDS011;10704;42.678;23.288;2023-04-06T08:16:15;17.33;;;10.70;;
21091;SDS011;10704;42.678;23.288;2023-04-06T08:18:41;16.75;;;10.38;;
21091;SDS011;10704;42.678;23.288;2023-04-06T08:21:07;20.35;;;10.93;;
21091;SDS011;10704;42.678;23.288;2023-04-06T08:23:33;20.00;;;11.32;;
21091;SDS011;10704;42.678;23.288;2023-04-06T08:25:59;16.85;;;10.18;;
21091;SDS011;10704;42.678;23.288;2023-04-06T08:28:25;14.77;;;9.77;;
21091;SDS011;10704;42.678;23.288;2023-04-06T08:30:51;13.05;;;9.18;;
21091;SDS011;10704;42.678;23.288;2023-04-06T08:33:17;15.15;;;9.40;;
21091;SDS011;10704;42.678;23.288;2023-04-06T08:35:43;14.98;;;8.73;;
21091;SDS011;10704;42.678;23.288;2023-04-06T08:38:09;17.08;;;10.65;;
21091;SDS011;10704;42.678;23.288;2023-04-06T08:40:36;18.70;;;10.93;;
21091;SDS011;10704;42.678;23.288;2023-04-06T08:43:06;16.27;;;10.15;;
21091;SDS011;10704;42.678;23.288;2023-04-06T08:45:36;23.23;;;12.18;;
21091;SDS011;10704;42.678;23.288;2023-04-06T08:48:04;20.10;;;9.27;;
21091;SDS011;10704;42.678;23.288;2023-04-06T08:50:32;13.85;;;9.13;;
21091;SDS011;10704;42.678;23.288;2023-04-06T08:52:59;15.50;;;8.77;;
21091;SDS011;10704;42.678;23.288;2023-04-06T08:55:26;13.85;;;8.95;;
21091;SDS011;10704;42.678;23.288;2023-04-06T08:57:52;18.05;;;9.85;;
21091;SDS011;10704;42.678;23.288;2023-04-06T09:00:20;17.30;;;10.48;;
21091;SDS011;10704;42.678;23.288;2023-04-06T09:02:48;15.75;;;9.63;;
21091;SDS011;10704;42.678;23.288;2023-04-06T09:05:15;13.88;;;9.23;;
21091;SDS011;10704;42.678;23.288;2023-04-06T09:07:41;13.93;;;8.73;;
21091;SDS011;10704;42.678;23.288;2023-04-06T09:10:07;16.75;;;9.30;;
21091;SDS011;10704;42.678;23.288;2023-04-06T09:12:34;15.93;;;9.52;;
21091;SDS011;10704;42.678;23.288;2023-04-06T09:15:00;18.13;;;10.25;;
21091;SDS011;10704;42.678;23.288;2023-04-06T09:17:28;17.13;;;10.32;;
21091;SDS011;10704;42.678;23.288;2023-04-06T09:19:58;18.60;;;9.70;;
21091;SDS011;10704;42.678;23.288;2023-04-06T09:22:35;15.65;;;9.13;;
21091;SDS011;10704;42.678;23.288;2023-04-06T09:25:05;14.82;;;9.30;;
21091;SDS011;10704;42.678;23.288;2023-04-06T09:27:32;15.90;;;9.15;;
21091;SDS011;10704;42.678;23.288;2023-04-06T09:30:09;16.52;;;10.80;;
21091;SDS011;10704;42.678;23.288;2023-04-06T09:32:49;20.35;;;11.20;;
21091;SDS011;10704;42.678;23.288;2023-04-06T09:35:16;17.17;;;10.57;;
21091;SDS011;10704;42.678;23.288;2023-04-06T09:37:43;18.50;;;10.38;;
21091;SDS011;10704;42.678;23.288;2023-04-06T09:40:09;20.25;;;10.40;;
21091;SDS011;10704;42.678;23.288;2023-04-06T09:42:36;16.90;;;10.02;;
21091;SDS011;10704;42.678;23.288;2023-04-06T09:45:02;14.55;;;8.68;;
21091;SDS011;10704;42.678;23.288;2023-04-06T09:47:29;15.43;;;9.27;;
21091;SDS011;10704;42.678;23.288;2023-04-06T09:49:57;16.50;;;9.48;;
21091;SDS011;10704;42.678;23.288;2023-04-06T09:52:26;15.13;;;9.20;;
21091;SDS011;10704;42.678;23.288;2023-04-06T09:55:31;14.02;;;9.10;;
21091;SDS011;10704;42.678;23.288;2023-04-06T09:58:09;17.30;;;9.55;;
21091;SDS011;10704;42.678;23.288;2023-04-06T10:03:36;15.25;;;9.13;;
21091;SDS011;10704;42.678;23.288;2023-04-06T10:06:15;13.30;;;8.35;;
21091;SDS011;10704;42.678;23.288;2023-04-06T10:08:45;12.57;;;8.57;;
21091;SDS011;10704;42.678;23.288;2023-04-06T10:11:13;13.48;;;7.68;;
21091;SDS011;10704;42.678;23.288;2023-04-06T10:13:39;20.88;;;9.02;;
21091;SDS011;10704;42.678;23.288;2023-04-06T10:16:07;19.05;;;9.25;;
21091;SDS011;10704;42.678;23.288;2023-04-06T10:18:33;16.02;;;9.50;;
21091;SDS011;10704;42.678;23.288;2023-04-06T10:21:01;14.57;;;9.05;;
21091;SDS011;10704;42.678;23.288;2023-04-06T10:23:36;13.32;;;8.40;;
21091;SDS011;10704;42.678;23.288;2023-04-06T10:26:16;13.38;;;8.65;;
21091;SDS011;10704;42.678;23.288;2023-04-06T10:28:46;14.90;;;8.75;;
21091;SDS011;10704;42.678;23.288;2023-04-06T10:31:13;12.18;;;7.93;;
21091;SDS011;10704;42.678;23.288;2023-04-06T10:33:39;10.48;;;7.50;;
21091;SDS011;10704;42.678;23.288;2023-04-06T10:36:25;13.10;;;8.75;;
21091;SDS011;10704;42.678;23.288;2023-04-06T10:38:53;12.52;;;8.02;;
21091;SDS011;10704;42.678;23.288;2023-04-06T10:41:23;12.13;;;7.93;;
21091;SDS011;10704;42.678;23.288;2023-04-06T10:43:56;14.50;;;8.45;;
21091;SDS011;10704;42.678;23.288;2023-04-06T10:46:26;12.23;;;8.02;;
21091;SDS011;10704;42.678;23.288;2023-04-06T10:48:54;15.38;;;8.70;;
21091;SDS011;10704;42.678;23.288;2023-04-06T10:51:25;13.40;;;9.00;;
21091;SDS011;10704;42.678;23.288;2023-04-06T10:53:53;14.00;;;9.00;;
21091;SDS011;10704;42.678;23.288;2023-04-06T10:56:21;11.98;;;8.02;;
21091;SDS011;10704;42.678;23.288;2023-04-06T10:58:52;15.60;;;9.10;;
21091;SDS011;10704;42.678;23.288;2023-04-06T11:01:21;11.40;;;7.50;;
21091;SDS011;10704;42.678;23.288;2023-04-06T11:03:52;12.00;;;7.72;;
21091;SDS011;10704;42.678;23.288;2023-04-06T11:08:50;11.07;;;7.55;;
21091;SDS011;10704;42.678;23.288;2023-04-06T11:11:18;11.95;;;7.97;;
21091;SDS011;10704;42.678;23.288;2023-04-06T11:13:46;14.25;;;8.63;;
21091;SDS011;10704;42.678;23.288;2023-04-06T11:16:20;15.45;;;8.57;;
21091;SDS011;10704;42.678;23.288;2023-04-06T11:18:47;10.98;;;7.57;;
21091;SDS011;10704;42.678;23.288;2023-04-06T11:21:18;12.35;;;8.13;;
21091;SDS011;10704;42.678;23.288;2023-04-06T11:23:45;12.50;;;8.30;;
21091;SDS011;10704;42.678;23.288;2023-04-06T11:26:12;11.40;;;8.25;;
21091;SDS011;10704;42.678;23.288;2023-04-06T11:28:39;16.65;;;9.38;;
21091;SDS011;10704;42.678;23.288;2023-04-06T11:31:07;12.10;;;8.93;;
21091;SDS011;10704;42.678;23.288;2023-04-06T11:33:37;14.73;;;8.00;;
21091;SDS011;10704;42.678;23.288;2023-04-06T11:36:04;12.55;;;8.00;;
21091;SDS011;10704;42.678;23.288;2023-04-06T11:38:30;13.73;;;8.27;;
21091;SDS011;10704;42.678;23.288;2023-04-06T11:40:57;15.45;;;8.65;;
21091;SDS011;10704;42.678;23.288;2023-04-06T11:43:27;15.45;;;9.18;;
21091;SDS011;10704;42.678;23.288;2023-04-06T11:46:04;14.77;;;8.57;;
21091;SDS011;10704;42.678;23.288;2023-04-06T11:48:30;14.60;;;10.02;;
21091;SDS011;10704;42.678;23.288;2023-04-06T11:51:00;14.43;;;8.98;;
21091;SDS011;10704;42.678;23.288;2023-04-06T11:53:28;13.98;;;8.52;;
21091;SDS011;10704;42.678;23.288;2023-04-06T11:55:55;12.63;;;8.93;;
21091;SDS011;10704;42.678;23.288;2023-04-06T11:58:21;13.88;;;8.77;;
21091;SDS011;10704;42.678;23.288;2023-04-06T12:00:47;18.02;;;9.73;;
21091;SDS011;10704;42.678;23.288;2023-04-06T12:03:13;16.30;;;10.35;;
21091;SDS011;10704;42.678;23.288;2023-04-06T12:05:40;16.63;;;9.98;;
21091;SDS011;10704;42.678;23.288;2023-04-06T12:08:06;13.80;;;7.90;;
21091;SDS011;10704;42.678;23.288;2023-04-06T12:10:32;13.23;;;8.05;;
21091;SDS011;10704;42.678;23.288;2023-04-06T12:12:58;13.60;;;8.07;;
21091;SDS011;10704;42.678;23.288;2023-04-06T12:15:24;14.52;;;8.27;;
21091;SDS011;10704;42.678;23.288;2023-04-06T12:17:50;12.43;;;8.10;;
21091;SDS011;10704;42.678;23.288;2023-04-06T12:20:16;14.60;;;8.65;;
21091;SDS011;10704;42.678;23.288;2023-04-06T12:22:42;14.45;;;9.20;;
21091;SDS011;10704;42.678;23.288;2023-04-06T12:25:08;15.55;;;9.15;;
21091;SDS011;10704;42.678;23.288;2023-04-06T12:27:34;13.55;;;8.60;;
21091;SDS011;10704;42.678;23.288;2023-04-06T12:30:00;11.23;;;8.27;;
21091;SDS011;10704;42.678;23.288;2023-04-06T12:32:26;12.23;;;8.02;;
21091;SDS011;10704;42.678;23.288;2023-04-06T12:34:52;13.77;;;8.63;;
21091;SDS011;10704;42.678;23.288;2023-04-06T12:37:18;14.00;;;8.75;;
21091;SDS011;10704;42.678;23.288;2023-04-06T12:39:45;12.93;;;8.60;;
21091;SDS011;10704;42.678;23.288;2023-04-06T12:42:11;15.55;;;8.60;;
21091;SDS011;10704;42.678;23.288;2023-04-06T12:44:38;14.75;;;8.98;;
21091;SDS011;10704;42.678;23.288;2023-04-06T12:47:05;12.50;;;8.32;;
21091;SDS011;10704;42.678;23.288;2023-04-06T12:49:32;13.98;;;8.38;;
21091;SDS011;10704;42.678;23.288;2023-04-06T12:51:58;16.52;;;8.65;;
21091;SDS011;10704;42.678;23.288;2023-04-06T12:54:24;14.25;;;8.38;;
21091;SDS011;10704;42.678;23.288;2023-04-06T12:56:51;12.07;;;7.90;;
21091;SDS011;10704;42.678;23.288;2023-04-06T12:59:17;12.75;;;8.02;;
21091;SDS011;10704;42.678;23.288;2023-04-06T13:01:43;12.07;;;8.35;;
21091;SDS011;10704;42.678;23.288;2023-04-06T13:04:10;14.93;;;8.38;;
21091;SDS011;10704;42.678;23.288;2023-04-06T13:06:36;13.68;;;9.75;;
21091;SDS011;10704;42.678;23.288;2023-04-06T13:09:02;14.02;;;9.50;;
21091;SDS011;10704;42.678;23.288;2023-04-06T13:11:29;19.25;;;11.43;;
21091;SDS011;10704;42.678;23.288;2023-04-06T13:13:55;21.77;;;10.73;;
21091;SDS011;10704;42.678;23.288;2023-04-06T13:16:21;17.75;;;8.93;;
21091;SDS011;10704;42.678;23.288;2023-04-06T13:18:47;15.82;;;9.15;;
21091;SDS011;10704;42.678;23.288;2023-04-06T13:21:14;16.13;;;8.75;;
21091;SDS011;10704;42.678;23.288;2023-04-06T13:23:44;11.63;;;7.75;;
21091;SDS011;10704;42.678;23.288;2023-04-06T13:26:10;12.82;;;7.13;;
21091;SDS011;10704;42.678;23.288;2023-04-06T13:28:36;12.80;;;8.48;;
21091;SDS011;10704;42.678;23.288;2023-04-06T13:31:04;14.55;;;9.07;;
21091;SDS011;10704;42.678;23.288;2023-04-06T13:33:30;15.05;;;8.63;;
21091;SDS011;10704;42.678;23.288;2023-04-06T13:35:56;15.02;;;8.95;;
21091;SDS011;10704;42.678;23.288;2023-04-06T13:38:23;12.95;;;8.25;;
21091;SDS011;10704;42.678;23.288;2023-04-06T13:40:49;10.75;;;7.05;;
21091;SDS011;10704;42.678;23.288;2023-04-06T13:43:15;11.80;;;8.40;;
21091;SDS011;10704;42.678;23.288;2023-04-06T13:45:51;12.27;;;8.00;;
21091;SDS011;10704;42.678;23.288;2023-04-06T13:48:19;13.75;;;8.35;;
21091;SDS011;10704;42.678;23.288;2023-04-06T13:50:45;14.27;;;7.65;;
21091;SDS011;10704;42.678;23.288;2023-04-06T13:53:11;15.18;;;9.45;;
21091;SDS011;10704;42.678;23.288;2023-04-06T13:55:38;14.20;;;8.50;;
21091;SDS011;10704;42.678;23.288;2023-04-06T13:58:04;14.57;;;8.30;;
21091;SDS011;10704;42.678;23.288;2023-04-06T14:00:30;14.45;;;8.75;;
21091;SDS011;10704;42.678;23.288;2023-04-06T14:02:56;15.30;;;8.65;;
21091;SDS011;10704;42.678;23.288;2023-04-06T14:05:22;12.80;;;7.95;;
21091;SDS011;10704;42.678;23.288;2023-04-06T14:07:49;13.60;;;8.85;;
21091;SDS011;10704;42.678;23.288;2023-04-06T14:10:15;16.92;;;8.45;;
21091;SDS011;10704;42.678;23.288;2023-04-06T14:12:42;15.05;;;8.70;;
21091;SDS011;10704;42.678;23.288;2023-04-06T14:15:10;13.48;;;8.40;;
21091;SDS011;10704;42.678;23.288;2023-04-06T14:17:37;11.80;;;8.18;;
21091;SDS011;10704;42.678;23.288;2023-04-06T14:20:04;13.52;;;7.97;;
21091;SDS011;10704;42.678;23.288;2023-04-06T14:22:31;13.55;;;9.30;;
21091;SDS011;10704;42.678;23.288;2023-04-06T14:24:57;15.32;;;8.95;;
21091;SDS011;10704;42.678;23.288;2023-04-06T14:27:24;15.65;;;9.02;;
21091;SDS011;10704;42.678;23.288;2023-04-06T14:29:50;14.80;;;8.65;;
21091;SDS011;10704;42.678;23.288;2023-04-06T14:32:16;15.15;;;8.50;;
21091;SDS011;10704;42.678;23.288;2023-04-06T14:34:42;14.02;;;9.07;;